createdAt,value
2022-10-25T00:02:19.497Z,6.17
2022-10-25T00:04:46.540Z,4.30
2022-10-25T00:07:13.535Z,4.50
2022-10-25T00:09:40.463Z,9.23
2022-10-25T00:12:07.429Z,4.50
2022-10-25T00:14:34.634Z,5.67
2022-10-25T00:17:01.566Z,6.60
2022-10-25T00:19:28.150Z,6.47
2022-10-25T00:21:54.833Z,2.60
2022-10-25T00:24:21.426Z,6.37
2022-10-25T00:26:48.050Z,5.40
2022-10-25T00:29:14.795Z,4.33
2022-10-25T00:31:41.489Z,4.40
2022-10-25T00:34:08.078Z,3.00
2022-10-25T00:36:34.702Z,9.73
2022-10-25T00:39:01.459Z,5.80
2022-10-25T00:41:29.779Z,5.77
2022-10-25T00:44:16.352Z,5.73
2022-10-25T00:46:43.550Z,4.93
2022-10-25T00:49:10.130Z,5.20
2022-10-25T00:51:43.265Z,3.63
2022-10-25T00:54:11.153Z,5.93
2022-10-25T00:56:39.188Z,4.30
2022-10-25T00:59:08.237Z,4.57
2022-10-25T01:01:35.155Z,9.10
2022-10-25T01:04:03.279Z,6.30
2022-10-25T01:06:40.913Z,3.80
2022-10-25T01:09:08.927Z,5.50
2022-10-25T01:11:37.819Z,5.67
2022-10-25T01:14:09.098Z,3.70
2022-10-25T01:16:54.254Z,5.90
2022-10-25T01:19:29.802Z,3.87
2022-10-25T01:22:17.739Z,7.07
2022-10-25T01:25:01.145Z,6.67
2022-10-25T01:27:45.937Z,3.27
2022-10-25T01:30:15.866Z,5.23
2022-10-25T01:33:01.339Z,7.57
2022-10-25T01:35:50.072Z,7.53
2022-10-25T01:38:28.872Z,6.83
2022-10-25T01:41:04.480Z,5.50
2022-10-25T01:43:36.546Z,4.53
2022-10-25T01:46:22.002Z,7.97
2022-10-25T01:48:50.734Z,8.03
2022-10-25T01:51:18.046Z,5.23
2022-10-25T01:53:46.134Z,3.97
2022-10-25T01:56:15.339Z,6.30
2022-10-25T01:58:41.938Z,3.13
2022-10-25T02:01:08.977Z,3.70
2022-10-25T02:03:55.966Z,5.47
2022-10-25T02:06:37.131Z,4.47
2022-10-25T02:09:12.096Z,3.13
2022-10-25T02:11:38.808Z,6.97
2022-10-25T02:14:24.206Z,3.83
2022-10-25T02:16:53.619Z,7.43
2022-10-25T02:19:22.534Z,7.50
2022-10-25T02:21:53.657Z,4.97
2022-10-25T02:24:23.444Z,8.23
2022-10-25T02:26:50.698Z,4.20
2022-10-25T02:29:18.402Z,5.87
2022-10-25T02:31:45.206Z,6.60
2022-10-25T02:34:11.970Z,4.23
2022-10-25T02:36:38.617Z,7.30
2022-10-25T02:39:06.630Z,4.87
2022-10-25T02:41:33.931Z,8.33
2022-10-25T02:44:00.560Z,5.93
2022-10-25T02:46:27.169Z,4.50
2022-10-25T02:48:53.768Z,5.87
2022-10-25T02:51:20.420Z,7.27
2022-10-25T02:53:47.248Z,6.30
2022-10-25T02:56:15.573Z,4.17
2022-10-25T02:58:43.398Z,8.17
2022-10-25T03:01:10.376Z,3.77
2022-10-25T03:03:37.143Z,4.50
2022-10-25T03:06:04.114Z,8.53
2022-10-25T03:08:30.725Z,7.47
2022-10-25T03:10:57.459Z,6.23
2022-10-25T03:13:24.223Z,4.27
2022-10-25T03:15:50.865Z,4.70
2022-10-25T03:18:17.680Z,7.23
2022-10-25T03:20:44.455Z,5.90
2022-10-25T03:23:11.217Z,9.13
2022-10-25T03:25:38.103Z,5.20
2022-10-25T03:28:05.010Z,5.50
2022-10-25T03:30:31.874Z,6.60
2022-10-25T03:32:58.900Z,7.70
2022-10-25T03:35:26.018Z,11.20
2022-10-25T03:37:53.078Z,5.90
2022-10-25T03:40:20.074Z,8.13
2022-10-25T03:42:46.878Z,4.80
2022-10-25T03:45:13.578Z,8.23
2022-10-25T03:47:40.195Z,5.87
2022-10-25T03:50:07.365Z,8.40
2022-10-25T03:52:34.078Z,6.23
2022-10-25T03:55:00.728Z,6.73
2022-10-25T03:57:27.347Z,8.60
2022-10-25T03:59:53.975Z,5.37
2022-10-25T04:02:20.626Z,6.90
2022-10-25T04:04:47.242Z,9.87
2022-10-25T04:07:13.853Z,6.87
2022-10-25T04:09:40.598Z,7.27
2022-10-25T04:12:07.227Z,3.10
2022-10-25T04:14:33.953Z,5.47
2022-10-25T04:17:00.627Z,7.93
2022-10-25T04:19:27.241Z,9.90
2022-10-25T04:21:53.885Z,10.17
2022-10-25T04:24:20.527Z,7.53
2022-10-25T04:26:47.123Z,10.53
2022-10-25T04:29:13.959Z,8.13
2022-10-25T04:31:40.561Z,8.90
2022-10-25T04:34:07.399Z,6.47
2022-10-25T04:36:34.040Z,10.13
2022-10-25T04:39:00.673Z,9.13
2022-10-25T04:41:27.453Z,10.63
2022-10-25T04:43:54.130Z,11.00
2022-10-25T04:46:21.072Z,9.40
2022-10-25T04:48:47.723Z,16.83
2022-10-25T04:51:14.595Z,10.77
2022-10-25T04:53:41.512Z,10.67
2022-10-25T04:56:09.866Z,8.80
2022-10-25T04:58:36.662Z,12.73
2022-10-25T05:01:04.698Z,9.17
2022-10-25T05:03:31.621Z,7.60
2022-10-25T05:06:10.536Z,13.67
2022-10-25T05:08:40.122Z,8.60
2022-10-25T05:11:07.450Z,9.93
2022-10-25T05:13:35.184Z,12.80
2022-10-25T05:16:01.892Z,9.47
2022-10-25T05:18:28.950Z,9.83
2022-10-25T05:20:56.757Z,7.73
2022-10-25T05:23:23.988Z,12.70
2022-10-25T05:26:00.281Z,11.80
2022-10-25T05:28:27.261Z,11.17
2022-10-25T05:30:53.847Z,8.20
2022-10-25T05:33:20.441Z,13.10
2022-10-25T05:35:47.062Z,7.17
2022-10-25T05:38:13.680Z,9.30
2022-10-25T05:40:40.458Z,4.97
2022-10-25T05:43:07.167Z,8.53
2022-10-25T05:45:33.789Z,12.33
2022-10-25T05:48:00.459Z,6.43
2022-10-25T05:50:27.066Z,9.27
2022-10-25T05:52:53.701Z,11.90
2022-10-25T05:55:20.343Z,8.00
2022-10-25T05:57:52.859Z,7.37
2022-10-25T06:00:19.497Z,9.07
2022-10-25T06:02:46.333Z,5.10
2022-10-25T06:05:13.393Z,7.60
2022-10-25T06:07:40.005Z,4.83
2022-10-25T06:10:10.410Z,8.17
2022-10-25T06:12:37.423Z,7.53
2022-10-25T06:15:04.221Z,5.83
2022-10-25T06:17:30.930Z,5.63
2022-10-25T06:19:57.663Z,10.07
2022-10-25T06:22:24.428Z,5.93
2022-10-25T06:24:51.026Z,4.77
2022-10-25T06:27:17.647Z,8.20
2022-10-25T06:29:44.417Z,6.43
2022-10-25T06:32:11.106Z,5.43
2022-10-25T06:34:37.759Z,5.67
2022-10-25T06:37:04.375Z,8.37
2022-10-25T06:39:30.979Z,5.97
2022-10-25T06:41:57.605Z,5.80
2022-10-25T06:44:24.262Z,12.07
2022-10-25T06:49:37.645Z,12.67
2022-10-25T06:52:04.265Z,5.73
2022-10-25T06:54:30.867Z,9.97
2022-10-25T06:56:57.867Z,5.40
2022-10-25T06:59:24.753Z,7.63
2022-10-25T07:01:51.519Z,9.47
2022-10-25T07:04:18.182Z,7.73
2022-10-25T07:06:44.843Z,6.90
2022-10-25T07:09:13.200Z,6.83
2022-10-25T07:11:40.024Z,8.87
2022-10-25T07:14:06.727Z,7.87
2022-10-25T07:16:33.426Z,7.13
2022-10-25T07:19:04.144Z,7.23
2022-10-25T07:21:31.386Z,5.03
2022-10-25T07:23:58.188Z,6.07
2022-10-25T07:26:26.040Z,6.97
2022-10-25T07:28:53.482Z,4.97
2022-10-25T07:31:21.610Z,6.83
2022-10-25T07:33:49.445Z,5.97
2022-10-25T07:36:16.175Z,3.37
2022-10-25T07:38:42.872Z,10.60
2022-10-25T07:41:10.031Z,6.30
2022-10-25T07:43:37.112Z,6.13
2022-10-25T07:46:03.964Z,8.57
2022-10-25T07:48:30.590Z,9.27
2022-10-25T07:50:57.218Z,6.70
2022-10-25T07:53:23.898Z,5.80
2022-10-25T07:55:54.954Z,5.67
2022-10-25T07:58:21.647Z,4.50
2022-10-25T08:00:48.565Z,9.30
2022-10-25T08:03:16.284Z,4.87
2022-10-25T08:05:43.669Z,6.73
2022-10-25T08:08:10.374Z,5.10
2022-10-25T08:10:37.007Z,8.07
2022-10-25T08:13:03.613Z,6.30
2022-10-25T08:15:30.259Z,4.27
2022-10-25T08:18:01.002Z,8.67
2022-10-25T08:20:43.388Z,6.23
2022-10-25T08:23:15.300Z,7.67
2022-10-25T08:25:41.934Z,6.50
2022-10-25T08:28:08.981Z,5.73
2022-10-25T08:30:35.642Z,5.57
2022-10-25T08:33:02.572Z,6.67
2022-10-25T08:35:29.392Z,7.20
2022-10-25T08:37:56.008Z,7.30
2022-10-25T08:40:29.003Z,6.77
2022-10-25T08:43:13.941Z,6.20
2022-10-25T08:45:47.122Z,8.27
2022-10-25T08:48:19.091Z,6.13
2022-10-25T08:50:47.937Z,8.30
2022-10-25T08:53:18.675Z,6.93
2022-10-25T08:56:05.180Z,6.40
2022-10-25T08:58:35.537Z,4.83
2022-10-25T09:01:05.028Z,6.90
2022-10-25T09:03:31.969Z,7.07
2022-10-25T09:06:19.092Z,3.83
2022-10-25T09:08:58.722Z,5.27
2022-10-25T09:11:31.394Z,6.13
2022-10-25T09:14:18.346Z,4.63
2022-10-25T09:16:44.959Z,5.13
2022-10-25T09:19:21.394Z,6.53
2022-10-25T09:21:49.967Z,3.63
2022-10-25T09:24:27.737Z,7.27
2022-10-25T09:26:54.371Z,4.10
2022-10-25T09:29:28.608Z,4.13
2022-10-25T09:31:57.192Z,3.57
2022-10-25T09:34:24.822Z,3.17
2022-10-25T09:36:57.810Z,3.97
2022-10-25T09:39:32.210Z,3.50
2022-10-25T09:41:58.849Z,7.90
2022-10-25T09:44:31.758Z,3.90
2022-10-25T09:47:03.093Z,5.17
2022-10-25T09:49:35.120Z,3.20
2022-10-25T09:52:07.664Z,3.30
2022-10-25T09:54:42.016Z,4.93
2022-10-25T09:57:08.627Z,3.80
2022-10-25T09:59:35.320Z,3.57
2022-10-25T10:02:02.187Z,3.90
2022-10-25T10:04:34.234Z,4.20
2022-10-25T10:07:16.192Z,6.17
2022-10-25T10:09:46.060Z,5.97
2022-10-25T10:12:18.913Z,2.17
2022-10-25T10:14:47.899Z,3.33
2022-10-25T10:17:17.243Z,3.67
2022-10-25T10:19:44.274Z,4.13
2022-10-25T10:22:15.013Z,2.97
2022-10-25T10:24:42.977Z,5.30
2022-10-25T10:27:21.897Z,3.17
2022-10-25T10:29:54.920Z,5.60
2022-10-25T10:32:26.768Z,4.60
2022-10-25T10:34:55.160Z,4.47
2022-10-25T10:37:28.967Z,4.80
2022-10-25T10:39:55.606Z,1.97
2022-10-25T10:42:37.555Z,3.53
2022-10-25T10:45:13.649Z,7.57
2022-10-25T10:48:00.872Z,4.80
2022-10-25T10:50:28.924Z,4.30
2022-10-25T10:52:59.353Z,3.20
2022-10-25T10:55:37.614Z,3.57
2022-10-25T10:58:06.375Z,5.10
2022-10-25T11:00:33.583Z,3.40
2022-10-25T11:03:00.693Z,5.23
2022-10-25T11:05:31.929Z,2.50
2022-10-25T11:08:00.549Z,3.53
2022-10-25T11:10:31.776Z,3.50
2022-10-25T11:13:04.260Z,3.17
2022-10-25T11:15:34.300Z,3.20
2022-10-25T11:18:03.859Z,3.90
2022-10-25T11:20:41.569Z,3.43
2022-10-25T11:23:13.151Z,3.30
2022-10-25T11:25:51.841Z,4.33
2022-10-25T11:28:21.359Z,2.77
2022-10-25T11:31:06.262Z,3.37
2022-10-25T11:33:37.546Z,10.10
2022-10-25T11:36:15.142Z,2.83
2022-10-25T11:39:14.259Z,4.50
2022-10-25T11:41:45.496Z,2.17
2022-10-25T11:44:23.527Z,4.63
2022-10-25T11:47:02.281Z,1.30
2022-10-25T11:49:34.126Z,2.80
2022-10-25T11:52:23.931Z,2.97
2022-10-25T11:55:09.460Z,2.07
2022-10-25T11:57:38.870Z,1.57
2022-10-25T12:00:11.633Z,2.20
2022-10-25T12:02:58.430Z,4.00
2022-10-25T12:05:25.166Z,2.50
2022-10-25T12:08:12.086Z,2.90
2022-10-25T12:10:40.589Z,3.13
2022-10-25T12:13:27.512Z,5.57
2022-10-25T12:15:55.146Z,3.30
2022-10-25T12:18:36.858Z,2.20
2022-10-25T12:21:04.342Z,3.03
2022-10-25T12:23:35.711Z,1.70
2022-10-25T12:26:05.899Z,3.37
2022-10-25T12:28:52.769Z,2.57
2022-10-25T12:31:26.888Z,4.30
2022-10-25T12:34:12.128Z,3.53
2022-10-25T12:36:40.829Z,1.83
2022-10-25T12:39:29.154Z,3.00
2022-10-25T12:42:01.365Z,1.53
2022-10-25T12:44:39.977Z,2.50
2022-10-25T12:47:15.480Z,2.00
2022-10-25T12:49:42.162Z,1.83
2022-10-25T12:52:26.786Z,3.60
2022-10-25T12:55:12.232Z,7.97
2022-10-25T12:57:57.138Z,4.77
2022-10-25T13:00:24.086Z,4.27
2022-10-25T13:03:10.339Z,2.53
2022-10-25T13:05:55.785Z,3.13
2022-10-25T13:08:23.452Z,3.47
2022-10-25T13:10:57.190Z,3.83
2022-10-25T13:13:26.271Z,3.27
2022-10-25T13:15:55.204Z,3.90
2022-10-25T13:18:26.858Z,2.40
2022-10-25T13:20:53.990Z,3.03
2022-10-25T13:23:39.169Z,2.47
2022-10-25T13:26:08.524Z,3.60
2022-10-25T13:28:43.628Z,1.73
2022-10-25T13:31:42.579Z,2.83
2022-10-25T13:34:11.975Z,1.70
2022-10-25T13:36:52.180Z,1.47
2022-10-25T13:39:28.133Z,3.90
2022-10-25T13:41:57.281Z,1.70
2022-10-25T13:44:27.830Z,2.87
2022-10-25T13:46:55.088Z,1.63
2022-10-25T13:49:27.536Z,4.00
2022-10-25T13:51:55.294Z,2.17
2022-10-25T13:54:22.234Z,3.03
2022-10-25T13:56:53.614Z,1.80
2022-10-25T13:59:37.821Z,4.60
2022-10-25T14:02:08.818Z,1.43
2022-10-25T14:04:37.117Z,1.53
2022-10-25T14:07:22.685Z,2.40
2022-10-25T14:09:53.293Z,1.87
2022-10-25T14:12:20.541Z,3.97
2022-10-25T14:14:57.999Z,2.70
2022-10-25T14:17:33.756Z,2.13
2022-10-25T14:20:02.357Z,2.93
2022-10-25T14:22:41.544Z,2.83
2022-10-25T14:25:14.204Z,3.40
2022-10-25T14:27:40.926Z,3.73
2022-10-25T14:30:27.057Z,2.63
2022-10-25T14:32:56.801Z,2.83
2022-10-25T14:35:30.554Z,3.40
2022-10-25T14:37:57.261Z,1.23
2022-10-25T14:40:25.663Z,4.07
2022-10-25T14:42:55.820Z,2.17
2022-10-25T14:45:24.388Z,1.53
2022-10-25T14:47:51.039Z,3.73
2022-10-25T14:50:26.575Z,2.70
2022-10-25T14:52:54.990Z,2.87
2022-10-25T14:55:23.540Z,3.13
2022-10-25T14:57:50.158Z,1.27
2022-10-25T15:00:21.263Z,2.17
2022-10-25T15:02:49.073Z,1.70
2022-10-25T15:05:21.011Z,1.70
2022-10-25T15:07:49.191Z,4.03
2022-10-25T15:10:34.725Z,2.00
2022-10-25T15:13:24.712Z,2.20
2022-10-25T15:15:51.592Z,3.87
2022-10-25T15:18:37.555Z,2.77
2022-10-25T15:21:14.731Z,1.80
2022-10-25T15:23:42.212Z,2.77
2022-10-25T15:26:21.292Z,2.73
2022-10-25T15:28:48.947Z,4.03
2022-10-25T15:31:22.329Z,5.00
2022-10-25T15:33:55.395Z,1.83
2022-10-25T15:36:23.109Z,3.30
2022-10-25T15:39:07.146Z,2.73
2022-10-25T15:41:36.984Z,3.83
2022-10-25T15:44:03.632Z,4.70
2022-10-25T15:46:33.204Z,3.57
2022-10-25T15:49:00.729Z,2.23
2022-10-25T15:51:30.891Z,3.13
2022-10-25T15:53:58.177Z,4.20
2022-10-25T15:56:24.846Z,2.90
2022-10-25T15:58:51.569Z,4.80
2022-10-25T16:01:18.550Z,2.67
2022-10-25T16:03:45.527Z,4.37
2022-10-25T16:06:13.585Z,6.53
2022-10-25T16:08:40.611Z,4.20
2022-10-25T16:11:11.851Z,2.50
2022-10-25T16:13:38.807Z,3.40
2022-10-25T16:16:21.884Z,3.30
2022-10-25T16:18:54.504Z,4.73
2022-10-25T16:21:21.839Z,3.00
2022-10-25T16:23:48.873Z,4.23
2022-10-25T16:26:29.525Z,5.50
2022-10-25T16:28:56.177Z,3.17
2022-10-25T16:31:22.808Z,3.33
2022-10-25T16:33:49.544Z,3.67
2022-10-25T16:36:16.131Z,4.77
2022-10-25T16:38:42.757Z,9.43
2022-10-25T16:41:22.984Z,4.07
2022-10-25T16:43:49.740Z,7.20
2022-10-25T16:46:16.471Z,7.27
2022-10-25T16:48:43.090Z,6.60
2022-10-25T16:51:14.368Z,8.40
2022-10-25T16:53:41.008Z,6.37
2022-10-25T16:56:09.167Z,5.90
2022-10-25T16:58:35.787Z,5.73
2022-10-25T17:01:02.605Z,6.07
2022-10-25T17:03:29.354Z,7.93
2022-10-25T17:05:55.979Z,8.57
2022-10-25T17:08:22.695Z,6.90
2022-10-25T17:10:49.308Z,9.97
2022-10-25T17:13:16.156Z,11.27
2022-10-25T17:15:42.780Z,15.67
2022-10-25T17:18:12.803Z,11.73
2022-10-25T17:20:42.037Z,12.40
2022-10-25T17:23:08.590Z,10.50
2022-10-25T17:25:35.505Z,9.97
2022-10-25T17:28:02.152Z,10.90
2022-10-25T17:30:28.928Z,11.17
2022-10-25T17:32:55.500Z,8.80
2022-10-25T17:35:28.657Z,9.47
2022-10-25T17:37:56.740Z,10.63
2022-10-25T17:40:23.336Z,9.80
2022-10-25T17:42:50.175Z,11.33
2022-10-25T17:45:16.831Z,10.27
2022-10-25T17:47:43.879Z,9.60
2022-10-25T17:50:11.211Z,10.20
2022-10-25T17:52:41.291Z,8.23
2022-10-25T17:55:10.141Z,9.30
2022-10-25T17:57:36.753Z,9.43
2022-10-25T18:00:03.961Z,7.27
2022-10-25T18:02:38.864Z,9.87
2022-10-25T18:05:19.753Z,12.60
2022-10-25T18:07:47.914Z,10.17
2022-10-25T18:10:14.841Z,10.77
2022-10-25T18:12:41.468Z,13.00
2022-10-25T18:15:08.414Z,8.57
2022-10-25T18:17:34.996Z,10.73
2022-10-25T18:20:01.591Z,9.80
2022-10-25T18:22:28.231Z,12.17
2022-10-25T18:24:54.773Z,10.57
2022-10-25T18:27:21.370Z,9.80
2022-10-25T18:29:48.339Z,12.70
2022-10-25T18:32:15.301Z,13.77
2022-10-25T18:34:41.922Z,11.67
2022-10-25T18:37:08.587Z,13.97
2022-10-25T18:39:35.243Z,13.97
2022-10-25T18:42:01.861Z,13.87
2022-10-25T18:44:28.453Z,9.50
2022-10-25T18:46:55.961Z,9.97
2022-10-25T18:49:22.494Z,8.93
2022-10-25T18:51:49.189Z,11.07
2022-10-25T18:54:15.867Z,13.47
2022-10-25T18:56:45.658Z,12.70
2022-10-25T18:59:12.340Z,14.63
2022-10-25T19:01:41.040Z,10.67
2022-10-25T19:04:07.873Z,12.00
2022-10-25T19:06:34.805Z,12.57
2022-10-25T19:09:03.098Z,10.87
2022-10-25T19:11:29.887Z,9.87
2022-10-25T19:13:56.527Z,10.90
2022-10-25T19:16:23.508Z,12.53
2022-10-25T19:18:50.155Z,11.53
2022-10-25T19:21:18.365Z,14.30
2022-10-25T19:23:46.319Z,15.00
2022-10-25T19:26:17.437Z,10.67
2022-10-25T19:28:44.284Z,12.13
2022-10-25T19:31:12.546Z,14.33
2022-10-25T19:33:39.545Z,10.13
2022-10-25T19:36:07.642Z,11.13
2022-10-25T19:38:37.967Z,12.03
2022-10-25T19:41:05.633Z,11.03
2022-10-25T19:43:32.793Z,9.40
2022-10-25T19:46:00.374Z,13.87
2022-10-25T19:48:28.529Z,10.17
2022-10-25T19:50:55.112Z,7.67
2022-10-25T19:53:21.828Z,8.93
2022-10-25T19:55:58.425Z,8.63
2022-10-25T19:58:25.206Z,9.50
2022-10-25T20:01:00.488Z,11.40
2022-10-25T20:03:28.990Z,9.27
2022-10-25T20:05:59.832Z,13.33
2022-10-25T20:08:26.924Z,8.60
2022-10-25T20:10:53.486Z,10.27
2022-10-25T20:13:20.093Z,10.03
2022-10-25T20:15:55.452Z,11.17
2022-10-25T20:18:23.477Z,9.73
2022-10-25T20:20:53.095Z,9.50
2022-10-25T20:23:20.511Z,8.67
2022-10-25T20:25:48.304Z,9.27
2022-10-25T20:28:14.914Z,11.30
2022-10-25T20:30:41.516Z,10.60
2022-10-25T20:33:08.673Z,9.47
2022-10-25T20:35:39.366Z,6.37
2022-10-25T20:38:06.370Z,7.60
2022-10-25T20:40:33.130Z,7.73
2022-10-25T20:42:59.913Z,12.70
2022-10-25T20:45:27.510Z,11.50
2022-10-25T20:47:55.155Z,5.50
2022-10-25T20:50:23.319Z,8.27
2022-10-25T20:53:09.275Z,7.17
2022-10-25T20:55:36.581Z,8.60
2022-10-25T20:58:04.803Z,7.93
2022-10-25T21:00:32.491Z,6.93
2022-10-25T21:02:59.520Z,9.30
2022-10-25T21:05:27.423Z,7.10
2022-10-25T21:07:54.048Z,7.87
2022-10-25T21:10:20.590Z,6.70
2022-10-25T21:12:47.226Z,10.87
2022-10-25T21:15:13.804Z,7.47
2022-10-25T21:17:40.336Z,7.70
2022-10-25T21:20:07.318Z,7.43
2022-10-25T21:22:33.886Z,6.53
2022-10-25T21:25:00.470Z,9.63
2022-10-25T21:27:27.040Z,8.47
2022-10-25T21:29:53.690Z,11.53
2022-10-25T21:32:20.266Z,6.97
2022-10-25T21:34:46.942Z,6.37
2022-10-25T21:37:13.791Z,8.97
2022-10-25T21:39:40.875Z,8.23
2022-10-25T21:42:07.464Z,8.80
2022-10-25T21:44:34.029Z,6.00
2022-10-25T21:47:00.548Z,7.67
2022-10-25T21:49:27.152Z,10.30
2022-10-25T21:51:53.747Z,8.13
2022-10-25T21:54:21.839Z,6.37
2022-10-25T21:56:48.893Z,9.33
2022-10-25T21:59:15.465Z,7.10
2022-10-25T22:01:42.192Z,11.43
2022-10-25T22:04:08.925Z,8.17
2022-10-25T22:06:35.952Z,7.50
2022-10-25T22:09:02.673Z,5.80
2022-10-25T22:11:31.590Z,7.23
2022-10-25T22:13:59.990Z,8.77
2022-10-25T22:16:26.930Z,6.33
2022-10-25T22:18:59.828Z,7.30
2022-10-25T22:21:27.338Z,6.77
2022-10-25T22:23:53.956Z,6.20
2022-10-25T22:26:21.285Z,7.33
2022-10-25T22:28:51.844Z,10.57
2022-10-25T22:31:18.739Z,5.63
2022-10-25T22:33:45.453Z,6.70
2022-10-25T22:36:13.557Z,5.70
2022-10-25T22:38:40.354Z,8.23
2022-10-25T22:41:08.265Z,7.60
2022-10-25T22:43:35.721Z,5.10
2022-10-25T22:46:03.210Z,8.40
2022-10-25T22:48:30.488Z,8.83
2022-10-25T22:50:57.168Z,6.87
2022-10-25T22:53:23.752Z,9.57
2022-10-25T22:56:13.686Z,8.67
2022-10-25T22:58:40.856Z,7.27
2022-10-25T23:01:14.810Z,9.63
2022-10-25T23:03:45.380Z,7.87
2022-10-25T23:06:13.180Z,8.73
2022-10-25T23:08:40.198Z,8.97
2022-10-25T23:11:08.046Z,8.73
2022-10-25T23:13:35.518Z,5.13
2022-10-25T23:16:03.180Z,9.90
2022-10-25T23:18:30.056Z,5.67
2022-10-25T23:20:57.276Z,10.60
2022-10-25T23:23:24.600Z,7.97
2022-10-25T23:25:51.675Z,5.00
2022-10-25T23:28:18.571Z,6.27
2022-10-25T23:30:45.112Z,8.60
2022-10-25T23:33:12.120Z,6.60
2022-10-25T23:35:39.672Z,5.83
2022-10-25T23:38:06.678Z,8.57
2022-10-25T23:40:33.464Z,6.60
2022-10-25T23:43:00.313Z,7.37
2022-10-25T23:45:27.353Z,10.30
2022-10-25T23:47:54.299Z,5.87
2022-10-25T23:50:20.890Z,7.83
2022-10-25T23:52:47.687Z,7.03
2022-10-25T23:55:14.712Z,6.70
2022-10-25T23:57:41.312Z,4.93
